Terminal Aerodrome Forecast
Issued by NWS

Home | Current Version | Previous Version | Text Only | Print | Product List | Glossary On
Versions: 1 2 3 4 5 6 7 8 9 10 11 12 13 14 15 16
980
FTUS42 KTBW 300539
TAFPGD
TAF
KPGD 300539Z 3006/3106 VRB04KT P6SM FEW250
     FM300800 10002KT 6SM BR FEW250
      TEMPO 3009/3013 3SM BR
     FM301400 15010KT P6SM FEW035 FEW250
     FM302000 23014G20KT P6SM FEW060 SCT250=

USA.gov is the U.S. government's official web portal to all federal, state and local government web resources and services.